sensor_id;sensor_type;location;lat;lon;timestamp;temperature;humidity
53752;DHT22;41095;53.090;6.692;2023-07-02T00:01:44;16.50;99.90
53752;DHT22;41095;53.090;6.692;2023-07-02T00:04:10;16.50;99.90
53752;DHT22;41095;53.090;6.692;2023-07-02T00:06:39;16.40;99.90
53752;DHT22;41095;53.090;6.692;2023-07-02T00:09:09;16.40;99.90
53752;DHT22;41095;53.090;6.692;2023-07-02T00:11:39;16.30;99.90
53752;DHT22;41095;53.090;6.692;2023-07-02T00:14:07;16.30;99.90
53752;DHT22;41095;53.090;6.692;2023-07-02T00:16:33;16.30;99.90
53752;DHT22;41095;53.090;6.692;2023-07-02T00:18:59;16.30;99.90
53752;DHT22;41095;53.090;6.692;2023-07-02T00:21:26;16.30;99.90
53752;DHT22;41095;53.090;6.692;2023-07-02T00:23:57;16.30;99.90
53752;DHT22;41095;53.090;6.692;2023-07-02T00:26:27;16.30;99.90
53752;DHT22;41095;53.090;6.692;2023-07-02T00:28:54;16.20;99.90
53752;DHT22;41095;53.090;6.692;2023-07-02T00:31:20;16.20;99.90
53752;DHT22;41095;53.090;6.692;2023-07-02T00:33:46;16.20;99.90
53752;DHT22;41095;53.090;6.692;2023-07-02T00:36:13;16.10;99.90
53752;DHT22;41095;53.090;6.692;2023-07-02T00:38:44;16.10;99.90
53752;DHT22;41095;53.090;6.692;2023-07-02T00:41:11;16.10;99.90
53752;DHT22;41095;53.090;6.692;2023-07-02T00:43:37;16.00;99.90
53752;DHT22;41095;53.090;6.692;2023-07-02T00:46:18;16.00;99.90
53752;DHT22;41095;53.090;6.692;2023-07-02T00:48:53;16.00;99.90
53752;DHT22;41095;53.090;6.692;2023-07-02T00:51:20;15.90;99.90
53752;DHT22;41095;53.090;6.692;2023-07-02T00:53:48;15.90;99.90
53752;DHT22;41095;53.090;6.692;2023-07-02T00:56:14;15.90;99.90
53752;DHT22;41095;53.090;6.692;2023-07-02T00:58:43;15.80;99.90
53752;DHT22;41095;53.090;6.692;2023-07-02T01:01:13;15.80;99.90
53752;DHT22;41095;53.090;6.692;2023-07-02T01:03:59;15.80;99.90
53752;DHT22;41095;53.090;6.692;2023-07-02T01:06:32;15.80;99.90
53752;DHT22;41095;53.090;6.692;2023-07-02T01:09:00;15.80;99.90
53752;DHT22;41095;53.090;6.692;2023-07-02T01:11:31;15.70;99.90
53752;DHT22;41095;53.090;6.692;2023-07-02T01:17:11;15.60;99.90
53752;DHT22;41095;53.090;6.692;2023-07-02T01:19:48;15.50;99.90
53752;DHT22;41095;53.090;6.692;2023-07-02T01:22:25;15.50;99.90
53752;DHT22;41095;53.090;6.692;2023-07-02T01:24:52;15.40;99.90
53752;DHT22;41095;53.090;6.692;2023-07-02T01:27:18;15.40;99.90
53752;DHT22;41095;53.090;6.692;2023-07-02T01:29:44;15.40;99.90
53752;DHT22;41095;53.090;6.692;2023-07-02T01:32:13;15.40;99.90
53752;DHT22;41095;53.090;6.692;2023-07-02T01:34:38;15.30;99.90
53752;DHT22;41095;53.090;6.692;2023-07-02T01:37:05;15.30;99.90
53752;DHT22;41095;53.090;6.692;2023-07-02T01:39:31;15.20;99.90
53752;DHT22;41095;53.090;6.692;2023-07-02T01:42:17;15.20;99.90
53752;DHT22;41095;53.090;6.692;2023-07-02T01:44:48;15.20;99.90
53752;DHT22;41095;53.090;6.692;2023-07-02T01:47:15;15.10;99.90
53752;DHT22;41095;53.090;6.692;2023-07-02T01:49:41;15.10;99.90
53752;DHT22;41095;53.090;6.692;2023-07-02T01:52:07;15.00;99.90
53752;DHT22;41095;53.090;6.692;2023-07-02T01:54:35;15.00;99.90
53752;DHT22;41095;53.090;6.692;2023-07-02T01:57:01;15.00;99.90
53752;DHT22;41095;53.090;6.692;2023-07-02T01:59:27;14.90;99.90
53752;DHT22;41095;53.090;6.692;2023-07-02T02:01:53;14.90;99.90
53752;DHT22;41095;53.090;6.692;2023-07-02T02:04:18;14.90;99.90
53752;DHT22;41095;53.090;6.692;2023-07-02T02:06:44;14.80;99.90
53752;DHT22;41095;53.090;6.692;2023-07-02T02:09:10;14.80;99.90
53752;DHT22;41095;53.090;6.692;2023-07-02T02:11:43;14.70;99.90
53752;DHT22;41095;53.090;6.692;2023-07-02T02:14:09;14.70;99.90
53752;DHT22;41095;53.090;6.692;2023-07-02T02:16:35;14.70;99.90
53752;DHT22;41095;53.090;6.692;2023-07-02T02:19:01;14.70;99.90
53752;DHT22;41095;53.090;6.692;2023-07-02T02:21:27;14.60;99.90
53752;DHT22;41095;53.090;6.692;2023-07-02T02:23:53;14.60;99.90
53752;DHT22;41095;53.090;6.692;2023-07-02T02:26:19;14.60;99.90
53752;DHT22;41095;53.090;6.692;2023-07-02T02:28:47;14.50;99.90
53752;DHT22;41095;53.090;6.692;2023-07-02T02:31:14;14.50;99.90
53752;DHT22;41095;53.090;6.692;2023-07-02T02:33:40;14.50;99.90
53752;DHT22;41095;53.090;6.692;2023-07-02T02:36:06;14.40;99.90
53752;DHT22;41095;53.090;6.692;2023-07-02T02:38:32;14.40;99.90
53752;DHT22;41095;53.090;6.692;2023-07-02T02:41:00;14.40;99.90
53752;DHT22;41095;53.090;6.692;2023-07-02T02:43:27;14.30;99.90
53752;DHT22;41095;53.090;6.692;2023-07-02T02:45:53;14.30;99.90
53752;DHT22;41095;53.090;6.692;2023-07-02T02:48:18;14.30;99.90
53752;DHT22;41095;53.090;6.692;2023-07-02T02:50:45;14.20;99.90
53752;DHT22;41095;53.090;6.692;2023-07-02T02:53:11;14.20;99.90
53752;DHT22;41095;53.090;6.692;2023-07-02T02:55:37;14.10;99.90
53752;DHT22;41095;53.090;6.692;2023-07-02T02:58:03;14.10;99.90
53752;DHT22;41095;53.090;6.692;2023-07-02T03:00:29;14.10;99.90
53752;DHT22;41095;53.090;6.692;2023-07-02T03:02:54;14.10;99.90
53752;DHT22;41095;53.090;6.692;2023-07-02T03:05:24;14.00;99.90
53752;DHT22;41095;53.090;6.692;2023-07-02T03:07:50;14.00;99.90
53752;DHT22;41095;53.090;6.692;2023-07-02T03:10:16;13.90;99.90
53752;DHT22;41095;53.090;6.692;2023-07-02T03:12:42;13.90;99.90
53752;DHT22;41095;53.090;6.692;2023-07-02T03:15:08;13.90;99.90
53752;DHT22;41095;53.090;6.692;2023-07-02T03:17:35;13.80;99.90
53752;DHT22;41095;53.090;6.692;2023-07-02T03:20:01;13.80;99.90
53752;DHT22;41095;53.090;6.692;2023-07-02T03:22:26;13.80;99.90
53752;DHT22;41095;53.090;6.692;2023-07-02T03:24:52;13.80;99.90
53752;DHT22;41095;53.090;6.692;2023-07-02T03:27:17;13.80;99.90
53752;DHT22;41095;53.090;6.692;2023-07-02T03:29:43;13.80;99.90
53752;DHT22;41095;53.090;6.692;2023-07-02T03:32:09;13.70;99.90
53752;DHT22;41095;53.090;6.692;2023-07-02T03:34:34;13.70;99.90
53752;DHT22;41095;53.090;6.692;2023-07-02T03:37:00;13.70;99.90
53752;DHT22;41095;53.090;6.692;2023-07-02T03:39:26;13.70;99.90
53752;DHT22;41095;53.090;6.692;2023-07-02T03:41:52;13.60;99.90
53752;DHT22;41095;53.090;6.692;2023-07-02T03:44:17;13.70;99.90
53752;DHT22;41095;53.090;6.692;2023-07-02T03:46:45;13.60;99.90
53752;DHT22;41095;53.090;6.692;2023-07-02T03:49:10;13.60;99.90
53752;DHT22;41095;53.090;6.692;2023-07-02T03:51:36;13.70;99.90
53752;DHT22;41095;53.090;6.692;2023-07-02T03:54:02;13.70;99.90
53752;DHT22;41095;53.090;6.692;2023-07-02T03:56:27;13.70;99.90
53752;DHT22;41095;53.090;6.692;2023-07-02T03:58:53;13.80;99.90
53752;DHT22;41095;53.090;6.692;2023-07-02T04:01:19;13.80;99.90
53752;DHT22;41095;53.090;6.692;2023-07-02T04:03:53;13.90;99.90
53752;DHT22;41095;53.090;6.692;2023-07-02T04:06:19;14.00;99.90
53752;DHT22;41095;53.090;6.692;2023-07-02T04:08:45;14.00;99.90
53752;DHT22;41095;53.090;6.692;2023-07-02T04:11:12;14.00;99.90
53752;DHT22;41095;53.090;6.692;2023-07-02T04:13:38;14.00;99.90
53752;DHT22;41095;53.090;6.692;2023-07-02T04:16:05;14.00;99.90
53752;DHT22;41095;53.090;6.692;2023-07-02T04:18:31;14.00;99.90
53752;DHT22;41095;53.090;6.692;2023-07-02T04:20:57;14.10;99.90
53752;DHT22;41095;53.090;6.692;2023-07-02T04:23:24;14.10;99.90
53752;DHT22;41095;53.090;6.692;2023-07-02T04:25:50;14.20;99.90
53752;DHT22;41095;53.090;6.692;2023-07-02T04:28:16;14.10;99.90
53752;DHT22;41095;53.090;6.692;2023-07-02T04:30:42;14.20;99.90
53752;DHT22;41095;53.090;6.692;2023-07-02T04:33:08;14.20;99.90
53752;DHT22;41095;53.090;6.692;2023-07-02T04:35:34;14.30;99.90
53752;DHT22;41095;53.090;6.692;2023-07-02T04:38:01;14.40;99.90
53752;DHT22;41095;53.090;6.692;2023-07-02T04:40:27;14.50;99.90
53752;DHT22;41095;53.090;6.692;2023-07-02T04:42:53;14.50;99.90
53752;DHT22;41095;53.090;6.692;2023-07-02T04:45:24;14.50;99.90
53752;DHT22;41095;53.090;6.692;2023-07-02T04:47:50;14.50;99.90
53752;DHT22;41095;53.090;6.692;2023-07-02T04:50:17;14.50;99.90
53752;DHT22;41095;53.090;6.692;2023-07-02T04:52:43;14.50;99.90
53752;DHT22;41095;53.090;6.692;2023-07-02T04:55:09;14.70;99.90
53752;DHT22;41095;53.090;6.692;2023-07-02T04:57:35;14.50;99.90
53752;DHT22;41095;53.090;6.692;2023-07-02T05:00:02;14.50;99.90
53752;DHT22;41095;53.090;6.692;2023-07-02T05:02:29;14.50;99.90
53752;DHT22;41095;53.090;6.692;2023-07-02T05:04:55;14.60;99.90
53752;DHT22;41095;53.090;6.692;2023-07-02T05:07:20;14.70;99.90
53752;DHT22;41095;53.090;6.692;2023-07-02T05:09:46;14.70;99.90
53752;DHT22;41095;53.090;6.692;2023-07-02T05:12:14;14.90;99.90
53752;DHT22;41095;53.090;6.692;2023-07-02T05:14:39;14.90;99.90
53752;DHT22;41095;53.090;6.692;2023-07-02T05:17:05;15.00;99.90
53752;DHT22;41095;53.090;6.692;2023-07-02T05:19:31;15.10;99.90
53752;DHT22;41095;53.090;6.692;2023-07-02T05:21:56;15.20;99.90
53752;DHT22;41095;53.090;6.692;2023-07-02T05:24:22;15.30;99.90
53752;DHT22;41095;53.090;6.692;2023-07-02T05:26:48;15.40;99.90
53752;DHT22;41095;53.090;6.692;2023-07-02T05:29:14;15.50;99.90
53752;DHT22;41095;53.090;6.692;2023-07-02T05:31:39;15.60;99.90
53752;DHT22;41095;53.090;6.692;2023-07-02T05:34:05;15.60;99.90
53752;DHT22;41095;53.090;6.692;2023-07-02T05:36:31;15.70;99.90
53752;DHT22;41095;53.090;6.692;2023-07-02T05:38:57;15.80;99.90
53752;DHT22;41095;53.090;6.692;2023-07-02T05:41:23;15.80;99.90
53752;DHT22;41095;53.090;6.692;2023-07-02T05:43:48;15.90;99.90
53752;DHT22;41095;53.090;6.692;2023-07-02T05:46:15;15.90;99.90
53752;DHT22;41095;53.090;6.692;2023-07-02T05:48:41;16.00;99.90
53752;DHT22;41095;53.090;6.692;2023-07-02T05:51:07;16.20;99.90
53752;DHT22;41095;53.090;6.692;2023-07-02T05:53:34;16.30;99.90
53752;DHT22;41095;53.090;6.692;2023-07-02T05:55:59;16.50;99.90
53752;DHT22;41095;53.090;6.692;2023-07-02T05:58:25;16.80;99.90
53752;DHT22;41095;53.090;6.692;2023-07-02T06:00:51;17.00;99.90
53752;DHT22;41095;53.090;6.692;2023-07-02T06:03:17;17.10;99.90
53752;DHT22;41095;53.090;6.692;2023-07-02T06:05:47;17.10;99.90
53752;DHT22;41095;53.090;6.692;2023-07-02T06:08:14;17.00;99.90
53752;DHT22;41095;53.090;6.692;2023-07-02T06:10:39;17.00;99.90
53752;DHT22;41095;53.090;6.692;2023-07-02T06:13:05;17.00;99.90
53752;DHT22;41095;53.090;6.692;2023-07-02T06:15:31;17.00;99.90
53752;DHT22;41095;53.090;6.692;2023-07-02T06:17:56;17.00;99.90
53752;DHT22;41095;53.090;6.692;2023-07-02T06:20:22;16.90;99.90
53752;DHT22;41095;53.090;6.692;2023-07-02T06:22:48;17.00;99.90
53752;DHT22;41095;53.090;6.692;2023-07-02T06:25:13;17.30;99.90
53752;DHT22;41095;53.090;6.692;2023-07-02T06:27:39;18.30;99.90
53752;DHT22;41095;53.090;6.692;2023-07-02T06:30:05;19.30;99.90
53752;DHT22;41095;53.090;6.692;2023-07-02T06:32:31;19.90;98.90
53752;DHT22;41095;53.090;6.692;2023-07-02T06:34:57;20.50;99.70
53752;DHT22;41095;53.090;6.692;2023-07-02T06:37:23;21.20;99.30
53752;DHT22;41095;53.090;6.692;2023-07-02T06:39:49;21.60;98.50
53752;DHT22;41095;53.090;6.692;2023-07-02T06:42:14;22.30;98.20
53752;DHT22;41095;53.090;6.692;2023-07-02T06:44:41;22.60;96.70
53752;DHT22;41095;53.090;6.692;2023-07-02T06:47:07;21.90;96.00
53752;DHT22;41095;53.090;6.692;2023-07-02T06:49:33;21.40;96.20
53752;DHT22;41095;53.090;6.692;2023-07-02T06:51:58;21.50;97.20
53752;DHT22;41095;53.090;6.692;2023-07-02T06:54:26;21.40;96.90
53752;DHT22;41095;53.090;6.692;2023-07-02T06:56:52;21.20;95.80
53752;DHT22;41095;53.090;6.692;2023-07-02T06:59:24;21.70;96.30
53752;DHT22;41095;53.090;6.692;2023-07-02T07:01:50;21.90;93.70
53752;DHT22;41095;53.090;6.692;2023-07-02T07:04:16;22.30;93.60
53752;DHT22;41095;53.090;6.692;2023-07-02T07:06:42;22.80;93.20
53752;DHT22;41095;53.090;6.692;2023-07-02T07:09:08;22.60;94.40
53752;DHT22;41095;53.090;6.692;2023-07-02T07:11:35;23.00;92.30
53752;DHT22;41095;53.090;6.692;2023-07-02T07:14:00;23.00;93.90
53752;DHT22;41095;53.090;6.692;2023-07-02T07:16:26;22.10;93.50
53752;DHT22;41095;53.090;6.692;2023-07-02T07:18:52;21.80;93.90
53752;DHT22;41095;53.090;6.692;2023-07-02T07:21:17;22.50;94.00
53752;DHT22;41095;53.090;6.692;2023-07-02T07:23:43;22.90;93.80
53752;DHT22;41095;53.090;6.692;2023-07-02T07:26:09;22.90;92.40
53752;DHT22;41095;53.090;6.692;2023-07-02T07:28:35;23.40;91.20
53752;DHT22;41095;53.090;6.692;2023-07-02T07:31:01;23.30;91.10
53752;DHT22;41095;53.090;6.692;2023-07-02T07:33:27;23.20;91.90
53752;DHT22;41095;53.090;6.692;2023-07-02T07:35:53;22.90;91.40
53752;DHT22;41095;53.090;6.692;2023-07-02T07:38:18;23.20;90.10
53752;DHT22;41095;53.090;6.692;2023-07-02T07:40:44;23.00;90.00
53752;DHT22;41095;53.090;6.692;2023-07-02T07:43:10;23.20;91.30
53752;DHT22;41095;53.090;6.692;2023-07-02T07:45:35;23.10;90.60
53752;DHT22;41095;53.090;6.692;2023-07-02T07:48:02;23.00;91.30
53752;DHT22;41095;53.090;6.692;2023-07-02T07:50:28;23.50;91.10
53752;DHT22;41095;53.090;6.692;2023-07-02T07:52:53;23.80;91.40
53752;DHT22;41095;53.090;6.692;2023-07-02T07:55:19;23.90;89.00
53752;DHT22;41095;53.090;6.692;2023-07-02T07:57:45;24.40;90.40
53752;DHT22;41095;53.090;6.692;2023-07-02T08:00:11;24.60;89.40
53752;DHT22;41095;53.090;6.692;2023-07-02T08:02:36;24.90;87.80
53752;DHT22;41095;53.090;6.692;2023-07-02T08:05:03;25.20;86.60
53752;DHT22;41095;53.090;6.692;2023-07-02T08:07:30;23.90;88.10
53752;DHT22;41095;53.090;6.692;2023-07-02T08:09:56;23.70;88.30
53752;DHT22;41095;53.090;6.692;2023-07-02T08:12:22;24.00;89.40
53752;DHT22;41095;53.090;6.692;2023-07-02T08:14:48;24.40;88.50
53752;DHT22;41095;53.090;6.692;2023-07-02T08:17:14;24.80;88.30
53752;DHT22;41095;53.090;6.692;2023-07-02T08:19:40;25.00;86.20
53752;DHT22;41095;53.090;6.692;2023-07-02T08:22:05;25.30;85.80
53752;DHT22;41095;53.090;6.692;2023-07-02T08:24:31;25.20;87.00
53752;DHT22;41095;53.090;6.692;2023-07-02T08:26:57;24.80;85.00
53752;DHT22;41095;53.090;6.692;2023-07-02T08:29:23;24.00;85.80
53752;DHT22;41095;53.090;6.692;2023-07-02T08:31:49;23.20;87.30
53752;DHT22;41095;53.090;6.692;2023-07-02T08:34:14;22.90;88.40
53752;DHT22;41095;53.090;6.692;2023-07-02T08:36:40;22.50;89.90
53752;DHT22;41095;53.090;6.692;2023-07-02T08:39:09;22.40;90.20
53752;DHT22;41095;53.090;6.692;2023-07-02T08:41:46;22.00;89.90
53752;DHT22;41095;53.090;6.692;2023-07-02T08:44:13;21.80;90.20
53752;DHT22;41095;53.090;6.692;2023-07-02T08:46:42;21.10;90.40
53752;DHT22;41095;53.090;6.692;2023-07-02T08:49:08;20.70;91.00
53752;DHT22;41095;53.090;6.692;2023-07-02T08:51:34;20.20;91.40
53752;DHT22;41095;53.090;6.692;2023-07-02T08:54:03;19.80;91.70
53752;DHT22;41095;53.090;6.692;2023-07-02T08:56:30;19.80;91.80
53752;DHT22;41095;53.090;6.692;2023-07-02T08:58:55;20.80;91.90
53752;DHT22;41095;53.090;6.692;2023-07-02T09:01:21;21.10;91.60
53752;DHT22;41095;53.090;6.692;2023-07-02T09:03:48;20.80;91.60
53752;DHT22;41095;53.090;6.692;2023-07-02T09:06:17;20.50;91.70
53752;DHT22;41095;53.090;6.692;2023-07-02T09:08:43;20.30;92.20
53752;DHT22;41095;53.090;6.692;2023-07-02T09:11:10;20.00;92.20
53752;DHT22;41095;53.090;6.692;2023-07-02T09:13:43;19.70;92.40
53752;DHT22;41095;53.090;6.692;2023-07-02T09:16:28;19.60;93.20
53752;DHT22;41095;53.090;6.692;2023-07-02T09:24:14;19.00;92.80
53752;DHT22;41095;53.090;6.692;2023-07-02T09:26:47;19.50;93.50
53752;DHT22;41095;53.090;6.692;2023-07-02T09:32:01;19.20;93.70
53752;DHT22;41095;53.090;6.692;2023-07-02T09:34:29;19.20;93.80
53752;DHT22;41095;53.090;6.692;2023-07-02T09:36:56;19.10;93.70
53752;DHT22;41095;53.090;6.692;2023-07-02T09:39:27;19.40;93.80
53752;DHT22;41095;53.090;6.692;2023-07-02T09:41:56;19.90;93.70
53752;DHT22;41095;53.090;6.692;2023-07-02T09:44:26;20.10;93.50
53752;DHT22;41095;53.090;6.692;2023-07-02T09:47:12;20.00;93.40
53752;DHT22;41095;53.090;6.692;2023-07-02T09:50:02;19.80;93.30
53752;DHT22;41095;53.090;6.692;2023-07-02T09:52:28;19.80;93.80
53752;DHT22;41095;53.090;6.692;2023-07-02T09:54:54;19.90;93.70
53752;DHT22;41095;53.090;6.692;2023-07-02T09:57:19;19.90;93.50
53752;DHT22;41095;53.090;6.692;2023-07-02T09:59:45;19.80;93.40
53752;DHT22;41095;53.090;6.692;2023-07-02T10:02:12;20.40;93.70
53752;DHT22;41095;53.090;6.692;2023-07-02T10:04:43;21.30;93.20
53752;DHT22;41095;53.090;6.692;2023-07-02T10:07:09;21.70;92.40
53752;DHT22;41095;53.090;6.692;2023-07-02T10:09:42;21.50;92.10
53752;DHT22;41095;53.090;6.692;2023-07-02T10:12:24;21.50;92.30
53752;DHT22;41095;53.090;6.692;2023-07-02T10:14:52;21.30;91.50
53752;DHT22;41095;53.090;6.692;2023-07-02T10:17:24;21.20;91.80
53752;DHT22;41095;53.090;6.692;2023-07-02T10:19:51;21.10;91.50
53752;DHT22;41095;53.090;6.692;2023-07-02T10:22:17;20.90;92.00
53752;DHT22;41095;53.090;6.692;2023-07-02T10:24:59;21.60;92.50
53752;DHT22;41095;53.090;6.692;2023-07-02T10:27:42;21.60;91.70
53752;DHT22;41095;53.090;6.692;2023-07-02T10:30:09;21.50;92.00
53752;DHT22;41095;53.090;6.692;2023-07-02T10:32:36;21.20;92.10
53752;DHT22;41095;53.090;6.692;2023-07-02T10:35:23;20.90;91.50
53752;DHT22;41095;53.090;6.692;2023-07-02T10:37:51;20.70;91.90
53752;DHT22;41095;53.090;6.692;2023-07-02T10:40:16;20.40;92.00
53752;DHT22;41095;53.090;6.692;2023-07-02T10:42:50;20.40;92.30
53752;DHT22;41095;53.090;6.692;2023-07-02T10:45:16;21.10;92.50
53752;DHT22;41095;53.090;6.692;2023-07-02T10:47:42;21.50;92.30
53752;DHT22;41095;53.090;6.692;2023-07-02T10:50:21;21.40;91.60
53752;DHT22;41095;53.090;6.692;2023-07-02T10:52:48;21.20;91.20
53752;DHT22;41095;53.090;6.692;2023-07-02T10:55:19;21.10;91.60
53752;DHT22;41095;53.090;6.692;2023-07-02T10:57:46;21.10;91.20
53752;DHT22;41095;53.090;6.692;2023-07-02T11:00:12;21.60;91.60
53752;DHT22;41095;53.090;6.692;2023-07-02T11:02:38;21.90;91.30
53752;DHT22;41095;53.090;6.692;2023-07-02T11:05:07;21.80;90.80
53752;DHT22;41095;53.090;6.692;2023-07-02T11:07:41;21.40;89.60
53752;DHT22;41095;53.090;6.692;2023-07-02T11:10:08;21.10;90.40
53752;DHT22;41095;53.090;6.692;2023-07-02T11:12:34;20.70;90.70
53752;DHT22;41095;53.090;6.692;2023-07-02T11:15:10;20.90;91.40
53752;DHT22;41095;53.090;6.692;2023-07-02T11:17:36;21.20;92.00
53752;DHT22;41095;53.090;6.692;2023-07-02T11:20:02;21.50;91.50
53752;DHT22;41095;53.090;6.692;2023-07-02T11:22:32;21.30;91.40
53752;DHT22;41095;53.090;6.692;2023-07-02T11:25:09;21.30;91.60
53752;DHT22;41095;53.090;6.692;2023-07-02T11:27:34;21.00;90.80
53752;DHT22;41095;53.090;6.692;2023-07-02T11:30:00;20.70;91.40
53752;DHT22;41095;53.090;6.692;2023-07-02T11:32:26;20.80;91.80
53752;DHT22;41095;53.090;6.692;2023-07-02T11:34:55;21.30;91.80
53752;DHT22;41095;53.090;6.692;2023-07-02T11:37:22;21.20;91.40
53752;DHT22;41095;53.090;6.692;2023-07-02T11:39:48;21.10;91.60
53752;DHT22;41095;53.090;6.692;2023-07-02T11:42:14;21.00;91.50
53752;DHT22;41095;53.090;6.692;2023-07-02T11:44:40;21.00;91.40
53752;DHT22;41095;53.090;6.692;2023-07-02T11:47:06;20.70;91.50
53752;DHT22;41095;53.090;6.692;2023-07-02T11:49:32;21.30;91.40
53752;DHT22;41095;53.090;6.692;2023-07-02T11:51:58;21.60;91.80
53752;DHT22;41095;53.090;6.692;2023-07-02T11:54:23;21.70;90.90
53752;DHT22;41095;53.090;6.692;2023-07-02T11:56:49;21.80;91.20
53752;DHT22;41095;53.090;6.692;2023-07-02T11:59:15;21.50;91.10
53752;DHT22;41095;53.090;6.692;2023-07-02T12:01:40;21.10;91.10
53752;DHT22;41095;53.090;6.692;2023-07-02T12:04:06;20.90;91.40
53752;DHT22;41095;53.090;6.692;2023-07-02T12:06:33;20.70;91.50
53752;DHT22;41095;53.090;6.692;2023-07-02T12:08:59;20.40;92.10
53752;DHT22;41095;53.090;6.692;2023-07-02T12:11:25;20.40;92.10
53752;DHT22;41095;53.090;6.692;2023-07-02T12:13:50;20.40;91.90
53752;DHT22;41095;53.090;6.692;2023-07-02T12:16:16;20.40;92.10
53752;DHT22;41095;53.090;6.692;2023-07-02T12:18:42;20.10;91.90
53752;DHT22;41095;53.090;6.692;2023-07-02T12:21:07;19.80;92.10
53752;DHT22;41095;53.090;6.692;2023-07-02T12:23:33;19.90;92.30
53752;DHT22;41095;53.090;6.692;2023-07-02T12:25:59;19.90;92.40
53752;DHT22;41095;53.090;6.692;2023-07-02T12:28:24;19.90;92.40
53752;DHT22;41095;53.090;6.692;2023-07-02T12:30:50;19.80;92.40
53752;DHT22;41095;53.090;6.692;2023-07-02T12:33:16;19.80;92.30
53752;DHT22;41095;53.090;6.692;2023-07-02T12:35:41;19.80;92.10
53752;DHT22;41095;53.090;6.692;2023-07-02T12:38:07;20.00;92.30
53752;DHT22;41095;53.090;6.692;2023-07-02T12:40:34;20.10;92.20
53752;DHT22;41095;53.090;6.692;2023-07-02T12:42:59;20.00;91.60
53752;DHT22;41095;53.090;6.692;2023-07-02T12:45:25;20.10;91.70
53752;DHT22;41095;53.090;6.692;2023-07-02T12:47:51;20.50;90.90
53752;DHT22;41095;53.090;6.692;2023-07-02T12:50:17;20.80;90.20
53752;DHT22;41095;53.090;6.692;2023-07-02T12:52:43;21.10;89.00
53752;DHT22;41095;53.090;6.692;2023-07-02T12:55:08;21.20;88.20
53752;DHT22;41095;53.090;6.692;2023-07-02T12:57:34;21.30;88.80
53752;DHT22;41095;53.090;6.692;2023-07-02T13:00:00;21.50;88.90
53752;DHT22;41095;53.090;6.692;2023-07-02T13:02:26;21.70;88.00
53752;DHT22;41095;53.090;6.692;2023-07-02T13:04:52;21.50;87.80
53752;DHT22;41095;53.090;6.692;2023-07-02T13:07:17;21.20;87.80
53752;DHT22;41095;53.090;6.692;2023-07-02T13:09:43;21.10;88.90
53752;DHT22;41095;53.090;6.692;2023-07-02T13:12:10;20.70;89.40
53752;DHT22;41095;53.090;6.692;2023-07-02T13:14:37;20.70;90.20
53752;DHT22;41095;53.090;6.692;2023-07-02T13:17:03;20.50;90.60
53752;DHT22;41095;53.090;6.692;2023-07-02T13:19:31;20.50;90.70
53752;DHT22;41095;53.090;6.692;2023-07-02T13:21:56;20.20;90.80
53752;DHT22;41095;53.090;6.692;2023-07-02T13:24:22;20.10;90.80
53752;DHT22;41095;53.090;6.692;2023-07-02T13:26:48;20.20;91.30
53752;DHT22;41095;53.090;6.692;2023-07-02T13:29:14;20.50;91.20
53752;DHT22;41095;53.090;6.692;2023-07-02T13:31:40;20.70;90.90
53752;DHT22;41095;53.090;6.692;2023-07-02T13:34:05;20.60;90.70
53752;DHT22;41095;53.090;6.692;2023-07-02T13:36:31;20.60;90.60
53752;DHT22;41095;53.090;6.692;2023-07-02T13:38:57;20.40;90.80
53752;DHT22;41095;53.090;6.692;2023-07-02T13:41:24;20.30;90.90
53752;DHT22;41095;53.090;6.692;2023-07-02T13:43:50;20.40;90.90
53752;DHT22;41095;53.090;6.692;2023-07-02T13:46:15;20.80;91.60
53752;DHT22;41095;53.090;6.692;2023-07-02T13:48:42;20.50;91.30
53752;DHT22;41095;53.090;6.692;2023-07-02T13:51:08;20.60;91.50
53752;DHT22;41095;53.090;6.692;2023-07-02T13:53:34;20.60;91.70
53752;DHT22;41095;53.090;6.692;2023-07-02T13:56:00;20.40;91.80
53752;DHT22;41095;53.090;6.692;2023-07-02T13:58:25;20.30;92.00
53752;DHT22;41095;53.090;6.692;2023-07-02T14:00:51;20.40;92.20
53752;DHT22;41095;53.090;6.692;2023-07-02T14:03:17;20.30;91.60
53752;DHT22;41095;53.090;6.692;2023-07-02T14:05:42;20.30;91.60
53752;DHT22;41095;53.090;6.692;2023-07-02T14:08:09;20.10;91.50
53752;DHT22;41095;53.090;6.692;2023-07-02T14:10:35;20.20;91.40
53752;DHT22;41095;53.090;6.692;2023-07-02T14:13:01;20.30;91.80
53752;DHT22;41095;53.090;6.692;2023-07-02T14:15:26;20.70;91.70
53752;DHT22;41095;53.090;6.692;2023-07-02T14:17:53;20.70;91.50
53752;DHT22;41095;53.090;6.692;2023-07-02T14:20:20;20.60;91.10
53752;DHT22;41095;53.090;6.692;2023-07-02T14:22:46;20.50;90.70
53752;DHT22;41095;53.090;6.692;2023-07-02T14:25:12;20.00;90.20
53752;DHT22;41095;53.090;6.692;2023-07-02T14:27:38;19.70;90.10
53752;DHT22;41095;53.090;6.692;2023-07-02T14:30:04;19.60;90.80
53752;DHT22;41095;53.090;6.692;2023-07-02T14:32:34;19.60;91.20
53752;DHT22;41095;53.090;6.692;2023-07-02T14:35:01;19.60;91.00
53752;DHT22;41095;53.090;6.692;2023-07-02T14:37:27;19.60;91.30
53752;DHT22;41095;53.090;6.692;2023-07-02T14:39:53;19.70;91.30
53752;DHT22;41095;53.090;6.692;2023-07-02T14:42:18;19.50;91.40
53752;DHT22;41095;53.090;6.692;2023-07-02T14:44:44;19.60;91.40
53752;DHT22;41095;53.090;6.692;2023-07-02T14:47:10;19.90;91.60
53752;DHT22;41095;53.090;6.692;2023-07-02T14:49:37;19.90;91.50
53752;DHT22;41095;53.090;6.692;2023-07-02T14:52:03;19.90;91.90
53752;DHT22;41095;53.090;6.692;2023-07-02T14:54:28;19.60;92.10
53752;DHT22;41095;53.090;6.692;2023-07-02T14:56:54;19.80;92.50
53752;DHT22;41095;53.090;6.692;2023-07-02T14:59:20;19.80;92.50
53752;DHT22;41095;53.090;6.692;2023-07-02T15:01:45;19.80;92.10
53752;DHT22;41095;53.090;6.692;2023-07-02T15:04:11;20.00;92.50
53752;DHT22;41095;53.090;6.692;2023-07-02T15:06:37;20.10;92.20
53752;DHT22;41095;53.090;6.692;2023-07-02T15:09:02;20.00;91.70
53752;DHT22;41095;53.090;6.692;2023-07-02T15:11:28;20.10;92.00
53752;DHT22;41095;53.090;6.692;2023-07-02T15:13:54;20.30;91.90
53752;DHT22;41095;53.090;6.692;2023-07-02T15:16:19;20.60;91.10
53752;DHT22;41095;53.090;6.692;2023-07-02T15:18:47;20.50;88.30
53752;DHT22;41095;53.090;6.692;2023-07-02T15:21:12;20.40;86.00
53752;DHT22;41095;53.090;6.692;2023-07-02T15:23:39;20.30;86.00
53752;DHT22;41095;53.090;6.692;2023-07-02T15:26:05;20.30;85.80
53752;DHT22;41095;53.090;6.692;2023-07-02T15:28:32;20.60;86.70
53752;DHT22;41095;53.090;6.692;2023-07-02T15:31:01;20.80;86.20
53752;DHT22;41095;53.090;6.692;2023-07-02T15:33:28;20.70;85.60
53752;DHT22;41095;53.090;6.692;2023-07-02T15:35:54;20.60;87.00
53752;DHT22;41095;53.090;6.692;2023-07-02T15:38:19;20.50;87.90
53752;DHT22;41095;53.090;6.692;2023-07-02T15:40:47;20.40;87.40